sensor_id;sensor_type;location;lat;lon;timestamp;temperature;humidity
5723;DHT22;2886;49.722;8.612;2022-08-18T00:00:10;21.30;92.30
5723;DHT22;2886;49.722;8.612;2022-08-18T00:02:40;21.30;91.70
5723;DHT22;2886;49.722;8.612;2022-08-18T00:05:07;21.40;90.70
5723;DHT22;2886;49.722;8.612;2022-08-18T00:07:33;21.60;90.60
5723;DHT22;2886;49.722;8.612;2022-08-18T00:09:59;21.80;90.50
5723;DHT22;2886;49.722;8.612;2022-08-18T00:12:32;21.90;90.20
5723;DHT22;2886;49.722;8.612;2022-08-18T00:14:58;22.00;90.30
5723;DHT22;2886;49.722;8.612;2022-08-18T00:17:30;22.10;90.20
5723;DHT22;2886;49.722;8.612;2022-08-18T00:19:57;22.10;90.70
5723;DHT22;2886;49.722;8.612;2022-08-18T00:22:23;22.20;91.30
5723;DHT22;2886;49.722;8.612;2022-08-18T00:24:52;22.20;91.40
5723;DHT22;2886;49.722;8.612;2022-08-18T00:27:29;22.30;91.60
5723;DHT22;2886;49.722;8.612;2022-08-18T00:29:57;22.30;92.30
5723;DHT22;2886;49.722;8.612;2022-08-18T00:32:31;22.30;92.30
5723;DHT22;2886;49.722;8.612;2022-08-18T00:37:33;22.40;92.70
5723;DHT22;2886;49.722;8.612;2022-08-18T00:40:00;22.40;92.90
5723;DHT22;2886;49.722;8.612;2022-08-18T00:42:27;22.50;93.10
5723;DHT22;2886;49.722;8.612;2022-08-18T00:44:55;22.50;93.10
5723;DHT22;2886;49.722;8.612;2022-08-18T00:47:21;22.50;93.20
5723;DHT22;2886;49.722;8.612;2022-08-18T00:49:50;22.50;93.40
5723;DHT22;2886;49.722;8.612;2022-08-18T00:52:18;22.50;93.60
5723;DHT22;2886;49.722;8.612;2022-08-18T00:54:45;22.50;93.50
5723;DHT22;2886;49.722;8.612;2022-08-18T00:57:13;22.60;94.00
5723;DHT22;2886;49.722;8.612;2022-08-18T00:59:50;22.50;93.80
5723;DHT22;2886;49.722;8.612;2022-08-18T01:02:27;22.50;94.30
5723;DHT22;2886;49.722;8.612;2022-08-18T01:05:29;22.50;94.50
5723;DHT22;2886;49.722;8.612;2022-08-18T01:07:47;22.50;94.70
5723;DHT22;2886;49.722;8.612;2022-08-18T01:10:17;22.50;94.60
5723;DHT22;2886;49.722;8.612;2022-08-18T01:12:44;22.40;94.70
5723;DHT22;2886;49.722;8.612;2022-08-18T01:15:11;22.40;94.80
5723;DHT22;2886;49.722;8.612;2022-08-18T01:17:39;22.40;95.00
5723;DHT22;2886;49.722;8.612;2022-08-18T01:20:33;22.40;95.00
5723;DHT22;2886;49.722;8.612;2022-08-18T01:23:20;22.40;95.00
5723;DHT22;2886;49.722;8.612;2022-08-18T01:25:47;22.40;95.20
5723;DHT22;2886;49.722;8.612;2022-08-18T01:28:40;22.30;95.30
5723;DHT22;2886;49.722;8.612;2022-08-18T01:31:08;22.30;95.80
5723;DHT22;2886;49.722;8.612;2022-08-18T01:33:40;22.30;95.50
5723;DHT22;2886;49.722;8.612;2022-08-18T01:36:18;22.20;95.50
5723;DHT22;2886;49.722;8.612;2022-08-18T01:38:48;22.20;95.60
5723;DHT22;2886;49.722;8.612;2022-08-18T01:41:16;22.20;95.70
5723;DHT22;2886;49.722;8.612;2022-08-18T01:43:41;22.20;95.80
5723;DHT22;2886;49.722;8.612;2022-08-18T01:46:07;22.10;95.80
5723;DHT22;2886;49.722;8.612;2022-08-18T01:48:35;22.10;95.70
5723;DHT22;2886;49.722;8.612;2022-08-18T01:51:06;22.10;95.90
5723;DHT22;2886;49.722;8.612;2022-08-18T01:53:32;22.10;96.00
5723;DHT22;2886;49.722;8.612;2022-08-18T01:55:58;22.10;96.10
5723;DHT22;2886;49.722;8.612;2022-08-18T01:58:24;22.00;96.20
5723;DHT22;2886;49.722;8.612;2022-08-18T02:00:54;22.00;96.30
5723;DHT22;2886;49.722;8.612;2022-08-18T02:03:30;21.90;96.50
5723;DHT22;2886;49.722;8.612;2022-08-18T02:06:00;21.90;96.70
5723;DHT22;2886;49.722;8.612;2022-08-18T02:08:27;21.80;96.90
5723;DHT22;2886;49.722;8.612;2022-08-18T02:10:52;21.80;97.10
5723;DHT22;2886;49.722;8.612;2022-08-18T02:13:18;21.80;97.40
5723;DHT22;2886;49.722;8.612;2022-08-18T02:15:45;21.70;97.50
5723;DHT22;2886;49.722;8.612;2022-08-18T02:18:18;21.60;97.50
5723;DHT22;2886;49.722;8.612;2022-08-18T02:20:44;21.60;97.60
5723;DHT22;2886;49.722;8.612;2022-08-18T02:23:10;21.60;97.70
5723;DHT22;2886;49.722;8.612;2022-08-18T02:25:36;21.60;97.90
5723;DHT22;2886;49.722;8.612;2022-08-18T02:28:03;21.50;97.90
5723;DHT22;2886;49.722;8.612;2022-08-18T02:30:29;21.50;98.00
5723;DHT22;2886;49.722;8.612;2022-08-18T02:32:57;21.50;97.90
5723;DHT22;2886;49.722;8.612;2022-08-18T02:35:24;21.50;97.90
5723;DHT22;2886;49.722;8.612;2022-08-18T02:37:50;21.50;97.90
5723;DHT22;2886;49.722;8.612;2022-08-18T02:40:17;21.50;97.60
5723;DHT22;2886;49.722;8.612;2022-08-18T02:42:44;21.50;97.40
5723;DHT22;2886;49.722;8.612;2022-08-18T02:45:10;21.60;97.40
5723;DHT22;2886;49.722;8.612;2022-08-18T02:47:38;21.50;97.20
5723;DHT22;2886;49.722;8.612;2022-08-18T02:50:05;21.50;97.10
5723;DHT22;2886;49.722;8.612;2022-08-18T02:52:31;21.50;97.00
5723;DHT22;2886;49.722;8.612;2022-08-18T02:54:58;21.50;96.90
5723;DHT22;2886;49.722;8.612;2022-08-18T02:57:27;21.50;96.80
5723;DHT22;2886;49.722;8.612;2022-08-18T02:59:53;21.50;96.90
5723;DHT22;2886;49.722;8.612;2022-08-18T03:02:18;21.50;96.80
5723;DHT22;2886;49.722;8.612;2022-08-18T03:04:45;21.50;96.90
5723;DHT22;2886;49.722;8.612;2022-08-18T03:07:11;21.50;96.90
5723;DHT22;2886;49.722;8.612;2022-08-18T03:09:40;21.50;97.00
5723;DHT22;2886;49.722;8.612;2022-08-18T03:12:06;21.50;97.00
5723;DHT22;2886;49.722;8.612;2022-08-18T03:14:35;21.50;97.10
5723;DHT22;2886;49.722;8.612;2022-08-18T03:17:04;21.50;97.10
5723;DHT22;2886;49.722;8.612;2022-08-18T03:19:30;21.50;97.20
5723;DHT22;2886;49.722;8.612;2022-08-18T03:21:58;21.50;97.20
5723;DHT22;2886;49.722;8.612;2022-08-18T03:24:25;21.40;97.30
5723;DHT22;2886;49.722;8.612;2022-08-18T03:26:52;21.40;97.50
5723;DHT22;2886;49.722;8.612;2022-08-18T03:29:19;21.40;97.50
5723;DHT22;2886;49.722;8.612;2022-08-18T03:31:45;21.40;97.50
5723;DHT22;2886;49.722;8.612;2022-08-18T03:34:13;21.40;97.60
5723;DHT22;2886;49.722;8.612;2022-08-18T03:36:40;21.40;97.60
5723;DHT22;2886;49.722;8.612;2022-08-18T03:39:11;21.40;97.60
5723;DHT22;2886;49.722;8.612;2022-08-18T03:41:41;21.40;97.80
5723;DHT22;2886;49.722;8.612;2022-08-18T03:44:15;21.30;97.90
5723;DHT22;2886;49.722;8.612;2022-08-18T03:46:44;21.30;98.00
5723;DHT22;2886;49.722;8.612;2022-08-18T03:49:12;21.30;98.00
5723;DHT22;2886;49.722;8.612;2022-08-18T03:51:40;21.30;98.10
5723;DHT22;2886;49.722;8.612;2022-08-18T03:54:08;21.30;98.20
5723;DHT22;2886;49.722;8.612;2022-08-18T03:56:36;21.30;98.20
5723;DHT22;2886;49.722;8.612;2022-08-18T03:59:06;21.30;98.30
5723;DHT22;2886;49.722;8.612;2022-08-18T04:01:37;21.30;98.50
5723;DHT22;2886;49.722;8.612;2022-08-18T04:04:06;21.30;98.40
5723;DHT22;2886;49.722;8.612;2022-08-18T04:06:36;21.30;98.50
5723;DHT22;2886;49.722;8.612;2022-08-18T04:09:06;21.30;98.50
5723;DHT22;2886;49.722;8.612;2022-08-18T04:11:33;21.30;98.70
5723;DHT22;2886;49.722;8.612;2022-08-18T04:14:00;21.20;98.60
5723;DHT22;2886;49.722;8.612;2022-08-18T04:16:30;21.30;98.60
5723;DHT22;2886;49.722;8.612;2022-08-18T04:19:03;21.20;98.70
5723;DHT22;2886;49.722;8.612;2022-08-18T04:21:30;21.20;98.60
5723;DHT22;2886;49.722;8.612;2022-08-18T04:23:57;21.30;98.60
5723;DHT22;2886;49.722;8.612;2022-08-18T04:26:27;21.30;98.60
5723;DHT22;2886;49.722;8.612;2022-08-18T04:28:53;21.20;98.50
5723;DHT22;2886;49.722;8.612;2022-08-18T04:31:19;21.20;98.60
5723;DHT22;2886;49.722;8.612;2022-08-18T04:33:49;21.20;98.70
5723;DHT22;2886;49.722;8.612;2022-08-18T04:36:15;21.20;99.00
5723;DHT22;2886;49.722;8.612;2022-08-18T04:38:42;21.20;99.20
5723;DHT22;2886;49.722;8.612;2022-08-18T04:41:10;21.20;99.10
5723;DHT22;2886;49.722;8.612;2022-08-18T04:43:37;21.20;99.30
5723;DHT22;2886;49.722;8.612;2022-08-18T04:46:03;21.20;99.60
5723;DHT22;2886;49.722;8.612;2022-08-18T04:48:41;21.20;99.90
5723;DHT22;2886;49.722;8.612;2022-08-18T04:51:13;21.20;99.90
5723;DHT22;2886;49.722;8.612;2022-08-18T04:53:40;21.30;99.90
5723;DHT22;2886;49.722;8.612;2022-08-18T04:58:54;21.20;99.90
5723;DHT22;2886;49.722;8.612;2022-08-18T05:01:24;21.20;99.90
5723;DHT22;2886;49.722;8.612;2022-08-18T05:03:51;21.20;99.90
5723;DHT22;2886;49.722;8.612;2022-08-18T05:06:19;21.20;99.90
5723;DHT22;2886;49.722;8.612;2022-08-18T05:08:45;21.20;99.90
5723;DHT22;2886;49.722;8.612;2022-08-18T05:11:14;21.10;99.90
5723;DHT22;2886;49.722;8.612;2022-08-18T05:13:40;21.10;99.90
5723;DHT22;2886;49.722;8.612;2022-08-18T05:16:07;21.10;99.90
5723;DHT22;2886;49.722;8.612;2022-08-18T05:18:34;21.10;99.90
5723;DHT22;2886;49.722;8.612;2022-08-18T05:21:05;21.10;99.90
5723;DHT22;2886;49.722;8.612;2022-08-18T05:23:31;21.10;99.90
5723;DHT22;2886;49.722;8.612;2022-08-18T05:26:01;21.10;99.90
5723;DHT22;2886;49.722;8.612;2022-08-18T05:28:29;21.10;99.90
5723;DHT22;2886;49.722;8.612;2022-08-18T05:30:55;21.00;99.90
5723;DHT22;2886;49.722;8.612;2022-08-18T05:33:22;21.00;99.90
5723;DHT22;2886;49.722;8.612;2022-08-18T05:35:52;21.00;99.90
5723;DHT22;2886;49.722;8.612;2022-08-18T05:38:39;21.00;99.90
5723;DHT22;2886;49.722;8.612;2022-08-18T05:41:18;21.00;99.90
5723;DHT22;2886;49.722;8.612;2022-08-18T05:43:47;21.00;99.90
5723;DHT22;2886;49.722;8.612;2022-08-18T05:46:13;21.00;99.90
5723;DHT22;2886;49.722;8.612;2022-08-18T05:48:39;21.00;99.90
5723;DHT22;2886;49.722;8.612;2022-08-18T05:51:19;21.00;99.90
5723;DHT22;2886;49.722;8.612;2022-08-18T05:53:48;21.00;99.90
5723;DHT22;2886;49.722;8.612;2022-08-18T05:56:34;21.00;99.90
5723;DHT22;2886;49.722;8.612;2022-08-18T05:59:14;21.00;99.90
5723;DHT22;2886;49.722;8.612;2022-08-18T06:01:43;21.00;99.90
5723;DHT22;2886;49.722;8.612;2022-08-18T06:04:39;21.00;99.90
5723;DHT22;2886;49.722;8.612;2022-08-18T06:07:09;21.00;99.90
5723;DHT22;2886;49.722;8.612;2022-08-18T06:10:04;21.00;99.90
5723;DHT22;2886;49.722;8.612;2022-08-18T06:12:49;21.00;99.90
5723;DHT22;2886;49.722;8.612;2022-08-18T06:18:00;21.00;99.90
5723;DHT22;2886;49.722;8.612;2022-08-18T06:20:53;21.00;99.90
5723;DHT22;2886;49.722;8.612;2022-08-18T06:23:34;20.90;99.90
5723;DHT22;2886;49.722;8.612;2022-08-18T06:31:41;21.00;99.90
5723;DHT22;2886;49.722;8.612;2022-08-18T06:39:59;21.00;99.90
5723;DHT22;2886;49.722;8.612;2022-08-18T06:42:27;21.00;99.90
5723;DHT22;2886;49.722;8.612;2022-08-18T06:45:10;21.00;99.90
5723;DHT22;2886;49.722;8.612;2022-08-18T06:47:46;21.00;99.90
5723;DHT22;2886;49.722;8.612;2022-08-18T06:52:57;21.10;99.90
5723;DHT22;2886;49.722;8.612;2022-08-18T06:55:45;21.20;99.90
5723;DHT22;2886;49.722;8.612;2022-08-18T07:00:41;21.30;99.90
5723;DHT22;2886;49.722;8.612;2022-08-18T07:03:12;21.30;99.90
5723;DHT22;2886;49.722;8.612;2022-08-18T07:08:43;21.30;99.90
5723;DHT22;2886;49.722;8.612;2022-08-18T07:11:32;21.30;99.90
5723;DHT22;2886;49.722;8.612;2022-08-18T07:14:20;21.30;99.90
5723;DHT22;2886;49.722;8.612;2022-08-18T07:16:46;21.30;99.90
5723;DHT22;2886;49.722;8.612;2022-08-18T07:19:17;21.40;99.90
5723;DHT22;2886;49.722;8.612;2022-08-18T07:22:09;21.40;99.90
5723;DHT22;2886;49.722;8.612;2022-08-18T07:24:44;21.40;99.90
5723;DHT22;2886;49.722;8.612;2022-08-18T07:30:11;21.40;99.90
5723;DHT22;2886;49.722;8.612;2022-08-18T07:35:22;21.30;99.90
5723;DHT22;2886;49.722;8.612;2022-08-18T07:40:55;21.30;99.90
5723;DHT22;2886;49.722;8.612;2022-08-18T07:49:23;21.00;99.90
5723;DHT22;2886;49.722;8.612;2022-08-18T07:51:58;21.00;99.90
5723;DHT22;2886;49.722;8.612;2022-08-18T08:09:10;20.90;99.90
5723;DHT22;2886;49.722;8.612;2022-08-18T08:17:48;21.00;99.90
5723;DHT22;2886;49.722;8.612;2022-08-18T08:28:42;21.10;99.90
5723;DHT22;2886;49.722;8.612;2022-08-18T08:31:41;21.10;99.90
5723;DHT22;2886;49.722;8.612;2022-08-18T08:37:11;20.40;99.90
5723;DHT22;2886;49.722;8.612;2022-08-18T08:39:46;20.10;99.90
5723;DHT22;2886;49.722;8.612;2022-08-18T08:45:14;19.80;99.90
5723;DHT22;2886;49.722;8.612;2022-08-18T08:51:02;19.60;99.90
5723;DHT22;2886;49.722;8.612;2022-08-18T08:53:47;19.70;99.90
5723;DHT22;2886;49.722;8.612;2022-08-18T08:56:16;19.70;99.90
5723;DHT22;2886;49.722;8.612;2022-08-18T08:59:06;19.80;99.90
5723;DHT22;2886;49.722;8.612;2022-08-18T09:04:27;19.70;99.90
5723;DHT22;2886;49.722;8.612;2022-08-18T09:23:29;19.40;99.90
5723;DHT22;2886;49.722;8.612;2022-08-18T09:25:58;19.40;99.90
5723;DHT22;2886;49.722;8.612;2022-08-18T09:42:25;19.80;99.90
5723;DHT22;2886;49.722;8.612;2022-08-18T09:49:54;20.00;99.90
5723;DHT22;2886;49.722;8.612;2022-08-18T09:55:05;20.20;99.90
5723;DHT22;2886;49.722;8.612;2022-08-18T09:57:32;20.20;99.90
5723;DHT22;2886;49.722;8.612;2022-08-18T10:10:43;20.50;99.90
5723;DHT22;2886;49.722;8.612;2022-08-18T10:16:15;20.50;99.90
5723;DHT22;2886;49.722;8.612;2022-08-18T10:21:26;20.70;99.90
5723;DHT22;2886;49.722;8.612;2022-08-18T10:29:08;21.50;99.90
5723;DHT22;2886;49.722;8.612;2022-08-18T10:40:15;22.00;99.90
5723;DHT22;2886;49.722;8.612;2022-08-18T10:43:06;22.00;99.90
5723;DHT22;2886;49.722;8.612;2022-08-18T10:45:45;22.00;99.90
5723;DHT22;2886;49.722;8.612;2022-08-18T10:48:27;21.90;99.90
5723;DHT22;2886;49.722;8.612;2022-08-18T10:56:51;21.30;99.90
5723;DHT22;2886;49.722;8.612;2022-08-18T11:01:51;21.00;99.90
5723;DHT22;2886;49.722;8.612;2022-08-18T11:04:28;21.00;99.90
5723;DHT22;2886;49.722;8.612;2022-08-18T11:07:14;21.00;99.90
5723;DHT22;2886;49.722;8.612;2022-08-18T11:09:45;20.90;99.90
5723;DHT22;2886;49.722;8.612;2022-08-18T11:12:12;20.90;99.90
5723;DHT22;2886;49.722;8.612;2022-08-18T11:15:00;21.00;99.90
5723;DHT22;2886;49.722;8.612;2022-08-18T11:20:07;21.40;99.90
5723;DHT22;2886;49.722;8.612;2022-08-18T11:22:36;21.50;99.90
5723;DHT22;2886;49.722;8.612;2022-08-18T11:25:16;21.60;99.90
5723;DHT22;2886;49.722;8.612;2022-08-18T11:27:46;21.80;99.90
5723;DHT22;2886;49.722;8.612;2022-08-18T11:30:12;22.20;99.90
5723;DHT22;2886;49.722;8.612;2022-08-18T11:32:39;22.40;99.90
5723;DHT22;2886;49.722;8.612;2022-08-18T11:37:45;22.50;99.90
5723;DHT22;2886;49.722;8.612;2022-08-18T11:42:57;22.60;99.90
5723;DHT22;2886;49.722;8.612;2022-08-18T11:45:28;22.60;99.90
5723;DHT22;2886;49.722;8.612;2022-08-18T11:51:08;22.30;99.90
5723;DHT22;2886;49.722;8.612;2022-08-18T12:04:43;22.80;99.90
5723;DHT22;2886;49.722;8.612;2022-08-18T12:12:00;23.50;99.90
5723;DHT22;2886;49.722;8.612;2022-08-18T12:14:30;23.60;99.90
5723;DHT22;2886;49.722;8.612;2022-08-18T12:16:56;23.40;99.90
5723;DHT22;2886;49.722;8.612;2022-08-18T12:19:24;23.80;99.90
5723;DHT22;2886;49.722;8.612;2022-08-18T12:21:57;23.60;99.90
5723;DHT22;2886;49.722;8.612;2022-08-18T12:24:30;23.80;99.90
5723;DHT22;2886;49.722;8.612;2022-08-18T12:26:56;24.30;99.90
5723;DHT22;2886;49.722;8.612;2022-08-18T12:29:23;24.60;99.90
5723;DHT22;2886;49.722;8.612;2022-08-18T12:31:51;24.60;99.90
5723;DHT22;2886;49.722;8.612;2022-08-18T12:34:20;24.70;99.90
5723;DHT22;2886;49.722;8.612;2022-08-18T12:36:54;25.00;99.90
5723;DHT22;2886;49.722;8.612;2022-08-18T12:39:21;25.10;99.90
5723;DHT22;2886;49.722;8.612;2022-08-18T12:41:46;24.60;99.90
5723;DHT22;2886;49.722;8.612;2022-08-18T12:44:12;24.40;99.90
5723;DHT22;2886;49.722;8.612;2022-08-18T12:46:38;24.20;99.90
5723;DHT22;2886;49.722;8.612;2022-08-18T12:49:05;24.60;99.90
5723;DHT22;2886;49.722;8.612;2022-08-18T12:51:34;25.00;99.90
5723;DHT22;2886;49.722;8.612;2022-08-18T12:53:59;25.40;99.90
5723;DHT22;2886;49.722;8.612;2022-08-18T12:56:28;25.70;99.90
5723;DHT22;2886;49.722;8.612;2022-08-18T12:58:56;26.10;99.90
5723;DHT22;2886;49.722;8.612;2022-08-18T13:01:22;26.60;99.10
5723;DHT22;2886;49.722;8.612;2022-08-18T13:03:50;26.80;98.00
5723;DHT22;2886;49.722;8.612;2022-08-18T13:06:18;26.60;90.90
5723;DHT22;2886;49.722;8.612;2022-08-18T13:08:44;26.50;94.10
5723;DHT22;2886;49.722;8.612;2022-08-18T13:11:10;26.50;91.40
5723;DHT22;2886;49.722;8.612;2022-08-18T13:13:38;26.20;94.90
5723;DHT22;2886;49.722;8.612;2022-08-18T13:16:06;26.10;95.20
5723;DHT22;2886;49.722;8.612;2022-08-18T13:18:33;26.20;91.10
5723;DHT22;2886;49.722;8.612;2022-08-18T13:21:00;26.30;91.80
5723;DHT22;2886;49.722;8.612;2022-08-18T13:23:26;26.50;86.40
5723;DHT22;2886;49.722;8.612;2022-08-18T13:25:52;26.60;83.10
5723;DHT22;2886;49.722;8.612;2022-08-18T13:28:18;26.50;79.10
5723;DHT22;2886;49.722;8.612;2022-08-18T13:30:44;26.60;81.80
5723;DHT22;2886;49.722;8.612;2022-08-18T13:33:10;26.70;76.20
5723;DHT22;2886;49.722;8.612;2022-08-18T13:35:36;26.50;72.10
5723;DHT22;2886;49.722;8.612;2022-08-18T13:38:03;26.30;79.70
5723;DHT22;2886;49.722;8.612;2022-08-18T13:40:30;26.20;78.70
5723;DHT22;2886;49.722;8.612;2022-08-18T13:42:56;26.40;83.00
5723;DHT22;2886;49.722;8.612;2022-08-18T13:45:22;26.60;77.60
5723;DHT22;2886;49.722;8.612;2022-08-18T13:47:49;26.40;81.10
5723;DHT22;2886;49.722;8.612;2022-08-18T13:50:15;26.50;80.90
5723;DHT22;2886;49.722;8.612;2022-08-18T13:52:42;26.50;76.10
5723;DHT22;2886;49.722;8.612;2022-08-18T13:55:12;26.50;71.70
5723;DHT22;2886;49.722;8.612;2022-08-18T13:57:39;26.60;74.40
5723;DHT22;2886;49.722;8.612;2022-08-18T14:00:08;26.50;69.50
5723;DHT22;2886;49.722;8.612;2022-08-18T14:02:38;26.60;72.40
5723;DHT22;2886;49.722;8.612;2022-08-18T14:05:05;26.80;68.00
5723;DHT22;2886;49.722;8.612;2022-08-18T14:07:32;26.90;67.90
5723;DHT22;2886;49.722;8.612;2022-08-18T14:09:57;26.90;63.90
5723;DHT22;2886;49.722;8.612;2022-08-18T14:12:23;26.90;65.70
5723;DHT22;2886;49.722;8.612;2022-08-18T14:14:53;26.80;68.50
5723;DHT22;2886;49.722;8.612;2022-08-18T14:17:21;26.80;68.40
5723;DHT22;2886;49.722;8.612;2022-08-18T14:19:46;26.60;70.90
5723;DHT22;2886;49.722;8.612;2022-08-18T14:22:31;26.70;67.30
5723;DHT22;2886;49.722;8.612;2022-08-18T14:25:15;26.60;63.90
5723;DHT22;2886;49.722;8.612;2022-08-18T14:27:59;26.60;63.60
5723;DHT22;2886;49.722;8.612;2022-08-18T14:30:25;26.80;64.70
5723;DHT22;2886;49.722;8.612;2022-08-18T14:32:51;26.90;61.50
5723;DHT22;2886;49.722;8.612;2022-08-18T14:35:20;26.90;61.60
5723;DHT22;2886;49.722;8.612;2022-08-18T14:37:47;26.40;64.90
5723;DHT22;2886;49.722;8.612;2022-08-18T14:40:13;26.60;62.30
5723;DHT22;2886;49.722;8.612;2022-08-18T14:42:38;26.70;60.00
5723;DHT22;2886;49.722;8.612;2022-08-18T14:45:06;26.80;60.60
5723;DHT22;2886;49.722;8.612;2022-08-18T14:47:32;26.80;60.10
5723;DHT22;2886;49.722;8.612;2022-08-18T14:49:58;26.60;60.20
5723;DHT22;2886;49.722;8.612;2022-08-18T14:52:25;26.60;60.70
5723;DHT22;2886;49.722;8.612;2022-08-18T14:54:52;26.60;59.20
5723;DHT22;2886;49.722;8.612;2022-08-18T14:57:18;26.50;58.20
5723;DHT22;2886;49.722;8.612;2022-08-18T14:59:44;26.60;57.90
5723;DHT22;2886;49.722;8.612;2022-08-18T15:02:11;26.70;56.10
5723;DHT22;2886;49.722;8.612;2022-08-18T15:04:38;26.50;56.90
5723;DHT22;2886;49.722;8.612;2022-08-18T15:07:04;26.60;55.60
5723;DHT22;2886;49.722;8.612;2022-08-18T15:09:30;26.70;54.20
5723;DHT22;2886;49.722;8.612;2022-08-18T15:11:57;26.90;55.70
5723;DHT22;2886;49.722;8.612;2022-08-18T15:14:27;27.00;55.10
5723;DHT22;2886;49.722;8.612;2022-08-18T15:16:56;27.10;53.70
5723;DHT22;2886;49.722;8.612;2022-08-18T15:19:23;27.00;52.50
5723;DHT22;2886;49.722;8.612;2022-08-18T15:21:49;26.90;53.40
5723;DHT22;2886;49.722;8.612;2022-08-18T15:24:33;27.00;53.60
5723;DHT22;2886;49.722;8.612;2022-08-18T15:27:17;27.10;53.50
5723;DHT22;2886;49.722;8.612;2022-08-18T15:29:43;27.20;54.10
5723;DHT22;2886;49.722;8.612;2022-08-18T15:32:09;27.30;53.90
5723;DHT22;2886;49.722;8.612;2022-08-18T15:34:37;27.20;53.00
5723;DHT22;2886;49.722;8.612;2022-08-18T15:37:03;26.90;53.90
5723;DHT22;2886;49.722;8.612;2022-08-18T15:39:30;26.80;54.30
5723;DHT22;2886;49.722;8.612;2022-08-18T15:41:56;26.80;54.70
5723;DHT22;2886;49.722;8.612;2022-08-18T15:44:22;26.80;53.60
5723;DHT22;2886;49.722;8.612;2022-08-18T15:46:48;26.80;52.90
5723;DHT22;2886;49.722;8.612;2022-08-18T15:49:14;26.80;52.80
5723;DHT22;2886;49.722;8.612;2022-08-18T15:51:40;26.80;52.30
5723;DHT22;2886;49.722;8.612;2022-08-18T15:54:07;26.90;52.70
5723;DHT22;2886;49.722;8.612;2022-08-18T15:56:33;26.90;52.30
5723;DHT22;2886;49.722;8.612;2022-08-18T15:59:00;27.00;51.80
5723;DHT22;2886;49.722;8.612;2022-08-18T16:01:31;26.80;52.80
5723;DHT22;2886;49.722;8.612;2022-08-18T16:03:57;26.90;52.50
5723;DHT22;2886;49.722;8.612;2022-08-18T16:06:25;26.70;52.20
5723;DHT22;2886;49.722;8.612;2022-08-18T16:08:51;26.80;52.10
5723;DHT22;2886;49.722;8.612;2022-08-18T16:11:19;26.80;51.20
5723;DHT22;2886;49.722;8.612;2022-08-18T16:13:47;26.90;51.70
5723;DHT22;2886;49.722;8.612;2022-08-18T16:16:17;26.90;51.10
5723;DHT22;2886;49.722;8.612;2022-08-18T16:18:43;26.90;50.60
5723;DHT22;2886;49.722;8.612;2022-08-18T16:21:14;26.80;51.20
5723;DHT22;2886;49.722;8.612;2022-08-18T16:23:45;26.80;51.10
5723;DHT22;2886;49.722;8.612;2022-08-18T16:26:12;26.80;51.30
5723;DHT22;2886;49.722;8.612;2022-08-18T16:28:40;26.70;51.20
5723;DHT22;2886;49.722;8.612;2022-08-18T16:31:07;26.60;50.90
5723;DHT22;2886;49.722;8.612;2022-08-18T16:33:33;26.60;51.50
5723;DHT22;2886;49.722;8.612;2022-08-18T16:36:16;26.80;50.40
5723;DHT22;2886;49.722;8.612;2022-08-18T16:38:42;26.90;49.90
5723;DHT22;2886;49.722;8.612;2022-08-18T16:41:10;26.90;49.40
5723;DHT22;2886;49.722;8.612;2022-08-18T16:43:38;26.90;49.70
5723;DHT22;2886;49.722;8.612;2022-08-18T16:46:12;26.90;49.20
5723;DHT22;2886;49.722;8.612;2022-08-18T16:48:39;26.90;49.70
5723;DHT22;2886;49.722;8.612;2022-08-18T16:51:05;26.90;49.40
5723;DHT22;2886;49.722;8.612;2022-08-18T16:53:31;26.80;50.10
5723;DHT22;2886;49.722;8.612;2022-08-18T16:55:57;26.80;49.40
5723;DHT22;2886;49.722;8.612;2022-08-18T16:58:22;26.70;49.70
5723;DHT22;2886;49.722;8.612;2022-08-18T17:01:07;26.60;50.00
5723;DHT22;2886;49.722;8.612;2022-08-18T17:03:51;26.60;50.20
5723;DHT22;2886;49.722;8.612;2022-08-18T17:06:34;26.50;50.10
5723;DHT22;2886;49.722;8.612;2022-08-18T17:09:00;26.40;50.90
5723;DHT22;2886;49.722;8.612;2022-08-18T17:11:27;26.30;50.60
5723;DHT22;2886;49.722;8.612;2022-08-18T17:13:55;26.30;51.20
5723;DHT22;2886;49.722;8.612;2022-08-18T17:16:23;26.20;51.60
5723;DHT22;2886;49.722;8.612;2022-08-18T17:18:50;26.10;52.80
5723;DHT22;2886;49.722;8.612;2022-08-18T17:21:18;25.90;53.30
5723;DHT22;2886;49.722;8.612;2022-08-18T17:23:45;25.70;54.20
5723;DHT22;2886;49.722;8.612;2022-08-18T17:29:06;25.50;55.60
5723;DHT22;2886;49.722;8.612;2022-08-18T17:31:33;25.50;56.90
5723;DHT22;2886;49.722;8.612;2022-08-18T17:34:05;25.50;57.40
5723;DHT22;2886;49.722;8.612;2022-08-18T17:36:37;25.40;58.10
5723;DHT22;2886;49.722;8.612;2022-08-18T17:39:06;25.40;58.90
5723;DHT22;2886;49.722;8.612;2022-08-18T17:41:34;25.20;60.20
5723;DHT22;2886;49.722;8.612;2022-08-18T17:44:22;25.20;60.40
5723;DHT22;2886;49.722;8.612;2022-08-18T17:46:51;25.20;62.00
5723;DHT22;2886;49.722;8.612;2022-08-18T17:49:38;25.20;62.70
5723;DHT22;2886;49.722;8.612;2022-08-18T17:52:24;25.10;62.70
5723;DHT22;2886;49.722;8.612;2022-08-18T17:55:00;25.10;62.90
5723;DHT22;2886;49.722;8.612;2022-08-18T17:57:36;25.10;62.50
5723;DHT22;2886;49.722;8.612;2022-08-18T18:00:11;25.00;62.20
5723;DHT22;2886;49.722;8.612;2022-08-18T18:02:40;24.90;62.60
5723;DHT22;2886;49.722;8.612;2022-08-18T18:05:09;24.90;63.00
5723;DHT22;2886;49.722;8.612;2022-08-18T18:07:54;24.90;63.40
5723;DHT22;2886;49.722;8.612;2022-08-18T18:10:34;24.90;63.70
5723;DHT22;2886;49.722;8.612;2022-08-18T18:15:56;24.70;65.10
5723;DHT22;2886;49.722;8.612;2022-08-18T18:18:36;24.70;65.60
5723;DHT22;2886;49.722;8.612;2022-08-18T18:21:07;24.70;66.10
5723;DHT22;2886;49.722;8.612;2022-08-18T18:23:46;24.60;67.40
5723;DHT22;2886;49.722;8.612;2022-08-18T18:26:39;24.60;68.30
5723;DHT22;2886;49.722;8.612;2022-08-18T18:31:41;24.60;69.90
5723;DHT22;2886;49.722;8.612;2022-08-18T18:34:34;24.60;71.00
5723;DHT22;2886;49.722;8.612;2022-08-18T18:37:05;24.50;72.40
5723;DHT22;2886;49.722;8.612;2022-08-18T18:39:32;24.40;73.50
5723;DHT22;2886;49.722;8.612;2022-08-18T18:42:17;24.30;74.90
5723;DHT22;2886;49.722;8.612;2022-08-18T18:44:58;24.30;76.70
5723;DHT22;2886;49.722;8.612;2022-08-18T18:50:08;24.10;79.60
5723;DHT22;2886;49.722;8.612;2022-08-18T18:52:49;24.10;80.00
5723;DHT22;2886;49.722;8.612;2022-08-18T18:55:25;24.10;81.60
5723;DHT22;2886;49.722;8.612;2022-08-18T19:01:14;23.90;85.10
5723;DHT22;2886;49.722;8.612;2022-08-18T19:03:50;23.90;85.00
5723;DHT22;2886;49.722;8.612;2022-08-18T19:06:33;23.90;86.30
5723;DHT22;2886;49.722;8.612;2022-08-18T19:14:22;23.90;88.50
5723;DHT22;2886;49.722;8.612;2022-08-18T19:17:11;23.90;89.10
5723;DHT22;2886;49.722;8.612;2022-08-18T19:22:38;23.90;90.10
5723;DHT22;2886;49.722;8.612;2022-08-18T19:25:18;23.90;90.30
5723;DHT22;2886;49.722;8.612;2022-08-18T19:30:25;23.90;90.70
5723;DHT22;2886;49.722;8.612;2022-08-18T19:32:56;23.90;90.90
5723;DHT22;2886;49.722;8.612;2022-08-18T19:35:39;23.90;91.20
5723;DHT22;2886;49.722;8.612;2022-08-18T19:38:17;23.90;91.20
5723;DHT22;2886;49.722;8.612;2022-08-18T19:40:53;23.80;91.30
5723;DHT22;2886;49.722;8.612;2022-08-18T19:43:26;23.80;91.70
5723;DHT22;2886;49.722;8.612;2022-08-18T19:52:33;23.80;93.20
5723;DHT22;2886;49.722;8.612;2022-08-18T19:55:46;23.70;93.60
5723;DHT22;2886;49.722;8.612;2022-08-18T20:04:23;23.60;94.80
5723;DHT22;2886;49.722;8.612;2022-08-18T20:14:36;23.40;96.60
5723;DHT22;2886;49.722;8.612;2022-08-18T20:24:52;23.40;96.30